Airfield :
LOGIN :

Register | Disclaimer

   EN    FR    IT 

 










Legend :    VFR   Marginal VFR   IFR   Intensive IFR   Very Intensive IFR
Visi :
Ceiling :
>= 8 km
>= 3000ft
5 to 8 km
1000 to 3000 ft
1500m to 5 km
500 to 1000 ft
800 to 1500m
200 to 500 ft
< 800m
< 200 ft
Symbols :   Thunderstorms  Fog  Heavy snow  Heavy precipitations  Wind > 20 kt
SIGMETs :     Misc.  Thunderstorms  Icing  Turbulence  Mountain Waves  Volcanic Ashes







- Airport Elevation : 1475 ft


LSZC - Buochs Stans

CURRENT METAR :
  • 270250Z AUTO 04009KT 340V090 9999 -RA OVC013 03/03 Q1012

EXPIRED METARs :
  • 270220Z AUTO 02007KT 350V090 9999 -RA BKN011 03/02 Q1012 REDZ
  • 270150Z AUTO 03006KT 350V080 9999 -DZ OVC011 03/03 Q1013
  • 270120Z AUTO VRB05KT 9999 -RA OVC010 04/03 Q1013
  • 270050Z AUTO VRB09KT 9999 -RA OVC012 04/03 Q1012
  • 270020Z AUTO 08011KT 040V130 9999 -RA OVC012 04/03 Q1013

Expired Forecast.
No reported NOTAMs for that airfield.



MET'MAP, your aeronautical weather chart ! - Copyright ORBIFLY December 2007 - Disclaimer

ORBIFLY MET'MAP TEAM :

Programming & Development : Alexandra Zaïnal
Concept & Development : Baudouin d'Aumeries
Co-Development & Prog : Marc-Olivier Méhu
Technical & hardware support : Manuel Goepfert

Contact : metmap@orbifly.com




SOURCES & CREDITS :

   NOAA